EWG6K ESGG-EDDL
Flight info
| Callsign | EWG6K |
|---|---|
| Flight time | 1h 19m |
| Altitude | 30000 |
| Route | VADIN DCT LAPMA DCT RAXLU DCT ELSOB DCT KEGAB DCT DENOL T851 HALME HALME1A |
| Aircraft | A319/M-SDE3FGHIRWY/LB1 |
Departure
| Time | 2026-05-05 19:24 |
|---|---|
| Airport | Göteborg Landvetter Airport (ESGG) |
Arrival
| Time | 2026-05-05 20:43 |
|---|---|
| Airport | Düsseldorf Airport (EDDL) |
| Time | Latitude | Longitude | Altitude | Speed | Heading |
|---|---|---|---|---|---|
| 2026-05-05 18:41 | 57.66889 | 12.29411 | 510 ft | 0 kts | 117° |
| 2026-05-05 19:16 | 57.66898 | 12.29376 | 510 ft | 4 kts | 112° |
| 2026-05-05 19:16 | 57.66907 | 12.29328 | 510 ft | 4 kts | 96° |
| 2026-05-05 19:16 | 57.66907 | 12.29297 | 510 ft | 3 kts | 62° |
| 2026-05-05 19:16 | 57.66897 | 12.29277 | 509 ft | 1 kts | 26° |
| 2026-05-05 19:17 | 57.66896 | 12.29276 | 509 ft | 0 kts | 26° |
| 2026-05-05 19:19 | 57.66906 | 12.29285 | 509 ft | 3 kts | 26° |
| 2026-05-05 19:20 | 57.66926 | 12.29303 | 510 ft | 5 kts | 26° |
| 2026-05-05 19:20 | 57.66978 | 12.29328 | 510 ft | 11 kts | 341° |
| 2026-05-05 19:20 | 57.67012 | 12.29206 | 510 ft | 11 kts | 310° |
| 2026-05-05 19:20 | 57.67078 | 12.29218 | 511 ft | 10 kts | 27° |
| 2026-05-05 19:21 | 57.67141 | 12.29276 | 511 ft | 10 kts | 26° |
| 2026-05-05 19:21 | 57.67204 | 12.29334 | 512 ft | 10 kts | 26° |
| 2026-05-05 19:21 | 57.67267 | 12.29391 | 513 ft | 10 kts | 26° |
| 2026-05-05 19:21 | 57.67329 | 12.29448 | 513 ft | 10 kts | 26° |
| 2026-05-05 19:22 | 57.67394 | 12.29480 | 514 ft | 9 kts | 351° |
| 2026-05-05 19:22 | 57.67431 | 12.29388 | 514 ft | 9 kts | 296° |
| 2026-05-05 19:22 | 57.67460 | 12.29273 | 514 ft | 10 kts | 283° |
| 2026-05-05 19:22 | 57.67448 | 12.29110 | 512 ft | 16 kts | 251° |
| 2026-05-05 19:23 | 57.67373 | 12.28970 | 512 ft | 16 kts | 206° |
| 2026-05-05 19:23 | 57.67179 | 12.28793 | 513 ft | 64 kts | 206° |
| 2026-05-05 19:23 | 57.66556 | 12.28225 | 506 ft | 132 kts | 206° |
| 2026-05-05 19:23 | 57.65604 | 12.27359 | 812 ft | 153 kts | 208° |
| 2026-05-05 19:24 | 57.64683 | 12.26479 | 1565 ft | 148 kts | 208° |
| 2026-05-05 19:24 | 57.63723 | 12.25607 | 2036 ft | 163 kts | 207° |
| 2026-05-05 19:24 | 57.62637 | 12.24627 | 2396 ft | 185 kts | 207° |
| 2026-05-05 19:24 | 57.61400 | 12.23530 | 2737 ft | 210 kts | 204° |
| 2026-05-05 19:25 | 57.59892 | 12.22873 | 3183 ft | 236 kts | 188° |
| 2026-05-05 19:25 | 57.58178 | 12.22594 | 3746 ft | 257 kts | 185° |
| 2026-05-05 19:25 | 57.56367 | 12.22433 | 4685 ft | 263 kts | 184° |
| 2026-05-05 19:25 | 57.54525 | 12.22262 | 5685 ft | 266 kts | 186° |
| 2026-05-05 19:26 | 57.52669 | 12.21986 | 6666 ft | 269 kts | 188° |
| 2026-05-05 19:26 | 57.50791 | 12.21636 | 7591 ft | 273 kts | 189° |
| 2026-05-05 19:26 | 57.48895 | 12.21247 | 8538 ft | 276 kts | 191° |
| 2026-05-05 19:26 | 57.46971 | 12.20837 | 9487 ft | 280 kts | 191° |
| 2026-05-05 19:27 | 57.45051 | 12.20226 | 10350 ft | 280 kts | 202° |
| 2026-05-05 19:27 | 57.43283 | 12.18797 | 11168 ft | 279 kts | 216° |
| 2026-05-05 19:27 | 57.41712 | 12.16523 | 11497 ft | 296 kts | 229° |
| 2026-05-05 19:27 | 57.40231 | 12.13682 | 11831 ft | 315 kts | 230° |
| 2026-05-05 19:28 | 57.38683 | 12.10734 | 12542 ft | 321 kts | 230° |
| 2026-05-05 19:28 | 57.37131 | 12.07804 | 13356 ft | 324 kts | 230° |
| 2026-05-05 19:28 | 57.35544 | 12.04824 | 14144 ft | 326 kts | 230° |
| 2026-05-05 19:28 | 57.33944 | 12.01828 | 14858 ft | 328 kts | 229° |
| 2026-05-05 19:29 | 57.32307 | 11.98771 | 15572 ft | 331 kts | 229° |
| 2026-05-05 19:29 | 57.30702 | 11.95777 | 16255 ft | 334 kts | 230° |
| 2026-05-05 19:29 | 57.29061 | 11.92717 | 16940 ft | 337 kts | 230° |
| 2026-05-05 19:29 | 57.27405 | 11.89631 | 17621 ft | 340 kts | 230° |
| 2026-05-05 19:30 | 57.25734 | 11.86521 | 18291 ft | 343 kts | 230° |
| 2026-05-05 19:30 | 57.24048 | 11.83390 | 18874 ft | 345 kts | 229° |
| 2026-05-05 19:30 | 57.22345 | 11.80232 | 19461 ft | 348 kts | 229° |
| 2026-05-05 19:30 | 57.20624 | 11.77048 | 20036 ft | 351 kts | 229° |
| 2026-05-05 19:31 | 57.18891 | 11.73846 | 20611 ft | 355 kts | 229° |
| 2026-05-05 19:31 | 57.17143 | 11.70616 | 21198 ft | 358 kts | 229° |
| 2026-05-05 19:31 | 57.15357 | 11.67386 | 21734 ft | 362 kts | 226° |
| 2026-05-05 19:31 | 57.13292 | 11.64644 | 22260 ft | 372 kts | 215° |
| 2026-05-05 19:32 | 57.10896 | 11.62675 | 22784 ft | 383 kts | 204° |
| 2026-05-05 19:32 | 57.08341 | 11.61190 | 23295 ft | 387 kts | 204° |
| 2026-05-05 19:32 | 57.05765 | 11.59696 | 23753 ft | 389 kts | 204° |
| 2026-05-05 19:32 | 57.03175 | 11.58187 | 24179 ft | 392 kts | 204° |
| 2026-05-05 19:33 | 57.00567 | 11.56662 | 24602 ft | 394 kts | 204° |
| 2026-05-05 19:33 | 56.97949 | 11.55134 | 25015 ft | 396 kts | 204° |
| 2026-05-05 19:33 | 56.95319 | 11.53609 | 25441 ft | 398 kts | 204° |
| 2026-05-05 19:33 | 56.92666 | 11.52073 | 25849 ft | 401 kts | 204° |
| 2026-05-05 19:34 | 56.90000 | 11.50527 | 26267 ft | 403 kts | 204° |
| 2026-05-05 19:34 | 56.87323 | 11.48969 | 26681 ft | 405 kts | 204° |
| 2026-05-05 19:34 | 56.84636 | 11.47404 | 27086 ft | 407 kts | 204° |
| 2026-05-05 19:35 | 56.79206 | 11.44274 | 27877 ft | 411 kts | 203° |
| 2026-05-05 19:35 | 56.76467 | 11.42702 | 28264 ft | 413 kts | 203° |
| 2026-05-05 19:35 | 56.73718 | 11.41125 | 28637 ft | 415 kts | 203° |
| 2026-05-05 19:35 | 56.70963 | 11.39545 | 28994 ft | 417 kts | 203° |
| 2026-05-05 19:36 | 56.68180 | 11.37954 | 29352 ft | 419 kts | 203° |
| 2026-05-05 19:36 | 56.65387 | 11.36361 | 29704 ft | 421 kts | 203° |
| 2026-05-05 19:36 | 56.62586 | 11.34765 | 29934 ft | 422 kts | 203° |
| 2026-05-05 19:37 | 56.57088 | 11.31574 | 29967 ft | 410 kts | 204° |
| 2026-05-05 19:37 | 56.51690 | 11.28356 | 29965 ft | 408 kts | 204° |
| 2026-05-05 19:38 | 56.46298 | 11.25149 | 29969 ft | 408 kts | 204° |
| 2026-05-05 19:38 | 56.40897 | 11.21991 | 29966 ft | 408 kts | 204° |
| 2026-05-05 19:39 | 56.35528 | 11.18867 | 29958 ft | 408 kts | 204° |
| 2026-05-05 19:39 | 56.30124 | 11.15722 | 29952 ft | 408 kts | 204° |
| 2026-05-05 19:40 | 56.24721 | 11.12578 | 29945 ft | 408 kts | 204° |
| 2026-05-05 19:40 | 56.19313 | 11.09450 | 29945 ft | 408 kts | 203° |
| 2026-05-05 19:41 | 56.13906 | 11.06329 | 29945 ft | 409 kts | 203° |
| 2026-05-05 19:41 | 56.08486 | 11.03204 | 29944 ft | 409 kts | 203° |
| 2026-05-05 19:42 | 56.03079 | 11.00105 | 29937 ft | 408 kts | 203° |
| 2026-05-05 19:42 | 55.97662 | 10.97009 | 29930 ft | 408 kts | 203° |
| 2026-05-05 19:43 | 55.92248 | 10.93920 | 29928 ft | 408 kts | 202° |
| 2026-05-05 19:43 | 55.86831 | 10.90841 | 29933 ft | 408 kts | 202° |
| 2026-05-05 19:44 | 55.81409 | 10.87775 | 29931 ft | 409 kts | 202° |
| 2026-05-05 19:44 | 55.75989 | 10.84720 | 29933 ft | 408 kts | 202° |
| 2026-05-05 19:45 | 55.70606 | 10.81684 | 29936 ft | 408 kts | 203° |
| 2026-05-05 19:45 | 55.65176 | 10.78620 | 29940 ft | 407 kts | 203° |
| 2026-05-05 19:46 | 55.59778 | 10.75600 | 29940 ft | 406 kts | 203° |
| 2026-05-05 19:46 | 55.54423 | 10.72614 | 29948 ft | 406 kts | 203° |
| 2026-05-05 19:47 | 55.49047 | 10.69618 | 29957 ft | 405 kts | 203° |
| 2026-05-05 19:47 | 55.43685 | 10.66633 | 29951 ft | 404 kts | 203° |
| 2026-05-05 19:48 | 55.38330 | 10.63663 | 29951 ft | 403 kts | 203° |
| 2026-05-05 19:48 | 55.32985 | 10.60721 | 29948 ft | 402 kts | 204° |
| 2026-05-05 19:49 | 55.27656 | 10.57778 | 29938 ft | 401 kts | 204° |
| 2026-05-05 19:49 | 55.22340 | 10.54856 | 29937 ft | 400 kts | 204° |
| 2026-05-05 19:50 | 55.17020 | 10.51945 | 29923 ft | 400 kts | 204° |
| 2026-05-05 19:50 | 55.11707 | 10.49039 | 29920 ft | 400 kts | 204° |
| 2026-05-05 19:51 | 55.06395 | 10.46143 | 29912 ft | 400 kts | 203° |
| 2026-05-05 19:51 | 55.01077 | 10.43257 | 29907 ft | 400 kts | 203° |
| 2026-05-05 19:52 | 54.95764 | 10.40386 | 29905 ft | 400 kts | 203° |
| 2026-05-05 19:52 | 54.90452 | 10.37512 | 29907 ft | 400 kts | 203° |
| 2026-05-05 19:53 | 54.85139 | 10.34645 | 29908 ft | 400 kts | 202° |
| 2026-05-05 19:53 | 54.79824 | 10.31797 | 29905 ft | 400 kts | 202° |
| 2026-05-05 19:54 | 54.74503 | 10.28954 | 29900 ft | 400 kts | 202° |
| 2026-05-05 19:54 | 54.69209 | 10.25999 | 29904 ft | 399 kts | 205° |
| 2026-05-05 19:55 | 54.64044 | 10.22545 | 29909 ft | 397 kts | 206° |
| 2026-05-05 19:55 | 54.58921 | 10.18954 | 29914 ft | 397 kts | 206° |
| 2026-05-05 19:56 | 54.53779 | 10.15449 | 29919 ft | 398 kts | 205° |
| 2026-05-05 19:56 | 54.48611 | 10.12029 | 29923 ft | 398 kts | 205° |
| 2026-05-05 19:57 | 54.43439 | 10.08637 | 29922 ft | 398 kts | 205° |
| 2026-05-05 19:57 | 54.38267 | 10.05229 | 29924 ft | 398 kts | 205° |
| 2026-05-05 19:58 | 54.33093 | 10.01814 | 29921 ft | 399 kts | 205° |
| 2026-05-05 19:58 | 54.27938 | 9.98421 | 29918 ft | 400 kts | 205° |
| 2026-05-05 19:59 | 54.22742 | 9.95016 | 29905 ft | 400 kts | 205° |
| 2026-05-05 19:59 | 54.17527 | 9.91608 | 29901 ft | 401 kts | 205° |
| 2026-05-05 20:00 | 54.13183 | 9.88772 | 29888 ft | 402 kts | 205° |
| 2026-05-05 20:00 | 54.07961 | 9.85371 | 29890 ft | 402 kts | 204° |
| 2026-05-05 20:01 | 54.02809 | 9.82034 | 29880 ft | 403 kts | 204° |
| 2026-05-05 20:01 | 53.97562 | 9.78643 | 29881 ft | 403 kts | 204° |
| 2026-05-05 20:02 | 53.92309 | 9.75261 | 29884 ft | 404 kts | 204° |
| 2026-05-05 20:02 | 53.87060 | 9.71881 | 29886 ft | 404 kts | 204° |
| 2026-05-05 20:03 | 53.81797 | 9.68498 | 29886 ft | 404 kts | 204° |
| 2026-05-05 20:03 | 53.76539 | 9.65126 | 29883 ft | 404 kts | 204° |
| 2026-05-05 20:04 | 53.71271 | 9.61770 | 29884 ft | 404 kts | 204° |
| 2026-05-05 20:04 | 53.65990 | 9.58497 | 29887 ft | 406 kts | 200° |
| 2026-05-05 20:05 | 53.60386 | 9.56910 | 29886 ft | 410 kts | 191° |
| 2026-05-05 20:05 | 53.54728 | 9.55710 | 29889 ft | 410 kts | 191° |
| 2026-05-05 20:06 | 53.49106 | 9.54508 | 29886 ft | 410 kts | 191° |
| 2026-05-05 20:06 | 53.43451 | 9.53292 | 29882 ft | 410 kts | 190° |
| 2026-05-05 20:07 | 53.37790 | 9.52080 | 29882 ft | 410 kts | 190° |
| 2026-05-05 20:07 | 53.32132 | 9.50876 | 29872 ft | 409 kts | 190° |
| 2026-05-05 20:08 | 53.26484 | 9.49691 | 29867 ft | 409 kts | 190° |
| 2026-05-05 20:08 | 53.20829 | 9.48507 | 29858 ft | 409 kts | 190° |
| 2026-05-05 20:09 | 53.15167 | 9.47319 | 29854 ft | 410 kts | 189° |
| 2026-05-05 20:09 | 53.09516 | 9.46129 | 29852 ft | 410 kts | 189° |
| 2026-05-05 20:10 | 53.03859 | 9.44943 | 29852 ft | 410 kts | 189° |
| 2026-05-05 20:10 | 52.98206 | 9.43764 | 29852 ft | 410 kts | 189° |
| 2026-05-05 20:11 | 52.92571 | 9.42380 | 29857 ft | 408 kts | 196° |
| 2026-05-05 20:11 | 52.87355 | 9.38800 | 29849 ft | 406 kts | 207° |
| 2026-05-05 20:12 | 52.82329 | 9.34670 | 29849 ft | 406 kts | 207° |
| 2026-05-05 20:12 | 52.77257 | 9.30527 | 29853 ft | 406 kts | 207° |
| 2026-05-05 20:13 | 52.72187 | 9.26391 | 29850 ft | 407 kts | 207° |
| 2026-05-05 20:13 | 52.67112 | 9.22256 | 29845 ft | 407 kts | 206° |
| 2026-05-05 20:14 | 52.62032 | 9.18128 | 29843 ft | 407 kts | 206° |
| 2026-05-05 20:14 | 52.56950 | 9.14011 | 29846 ft | 407 kts | 206° |
| 2026-05-05 20:15 | 52.51867 | 9.09907 | 29846 ft | 407 kts | 206° |
| 2026-05-05 20:15 | 52.46779 | 9.05806 | 29847 ft | 407 kts | 206° |
| 2026-05-05 20:16 | 52.41688 | 9.01715 | 29848 ft | 407 kts | 206° |
| 2026-05-05 20:16 | 52.36592 | 8.97630 | 29847 ft | 408 kts | 206° |
| 2026-05-05 20:17 | 52.31495 | 8.93547 | 29844 ft | 408 kts | 205° |
| 2026-05-05 20:17 | 52.26396 | 8.89482 | 29847 ft | 408 kts | 205° |
| 2026-05-05 20:18 | 52.21328 | 8.85456 | 29843 ft | 408 kts | 205° |
| 2026-05-05 20:18 | 52.16220 | 8.81399 | 29840 ft | 408 kts | 205° |
| 2026-05-05 20:19 | 52.11116 | 8.77356 | 29835 ft | 408 kts | 205° |
| 2026-05-05 20:19 | 52.05995 | 8.73317 | 29830 ft | 408 kts | 205° |
| 2026-05-05 20:20 | 52.01195 | 8.68430 | 29828 ft | 412 kts | 221° |
| 2026-05-05 20:20 | 51.99294 | 8.64921 | 29823 ft | 416 kts | 232° |
| 2026-05-05 20:20 | 51.97851 | 8.60845 | 29820 ft | 420 kts | 243° |
| 2026-05-05 20:20 | 51.96926 | 8.56324 | 29822 ft | 426 kts | 254° |
| 2026-05-05 20:21 | 51.96329 | 8.51611 | 29827 ft | 426 kts | 255° |
| 2026-05-05 20:21 | 51.95128 | 8.42196 | 29818 ft | 427 kts | 254° |
| 2026-05-05 20:22 | 51.93903 | 8.32760 | 29819 ft | 428 kts | 254° |
| 2026-05-05 20:22 | 51.93283 | 8.28021 | 29443 ft | 434 kts | 254° |
| 2026-05-05 20:22 | 51.92649 | 8.23187 | 28470 ft | 437 kts | 255° |
| 2026-05-05 20:22 | 51.92027 | 8.18419 | 27867 ft | 430 kts | 255° |
| 2026-05-05 20:23 | 51.91411 | 8.13696 | 27239 ft | 426 kts | 255° |
| 2026-05-05 20:23 | 51.90801 | 8.09032 | 26625 ft | 421 kts | 255° |
| 2026-05-05 20:23 | 51.90192 | 8.04414 | 26022 ft | 417 kts | 255° |
| 2026-05-05 20:23 | 51.89584 | 7.99846 | 25423 ft | 413 kts | 255° |
| 2026-05-05 20:24 | 51.88987 | 7.95381 | 24831 ft | 410 kts | 255° |
| 2026-05-05 20:24 | 51.88390 | 7.90901 | 24255 ft | 407 kts | 255° |
| 2026-05-05 20:24 | 51.87792 | 7.86444 | 23683 ft | 404 kts | 255° |
| 2026-05-05 20:24 | 51.87195 | 7.82013 | 23075 ft | 401 kts | 255° |
| 2026-05-05 20:25 | 51.86601 | 7.77607 | 22525 ft | 397 kts | 255° |
| 2026-05-05 20:25 | 51.86009 | 7.73264 | 22025 ft | 393 kts | 254° |
| 2026-05-05 20:25 | 51.85166 | 7.69099 | 21528 ft | 387 kts | 244° |
| 2026-05-05 20:25 | 51.84024 | 7.65187 | 21071 ft | 383 kts | 242° |
| 2026-05-05 20:26 | 51.82876 | 7.61325 | 20604 ft | 380 kts | 242° |
| 2026-05-05 20:26 | 51.81738 | 7.57492 | 20148 ft | 376 kts | 242° |
| 2026-05-05 20:26 | 51.80611 | 7.53691 | 19695 ft | 373 kts | 242° |
| 2026-05-05 20:26 | 51.79494 | 7.49929 | 19236 ft | 370 kts | 242° |
| 2026-05-05 20:27 | 51.78382 | 7.46189 | 18781 ft | 367 kts | 242° |
| 2026-05-05 20:27 | 51.77279 | 7.42488 | 18328 ft | 365 kts | 242° |
| 2026-05-05 20:27 | 51.76178 | 7.38804 | 17821 ft | 363 kts | 243° |
| 2026-05-05 20:27 | 51.75089 | 7.35163 | 17347 ft | 359 kts | 243° |
| 2026-05-05 20:28 | 51.74008 | 7.31551 | 16878 ft | 356 kts | 243° |
| 2026-05-05 20:28 | 51.72927 | 7.27961 | 16399 ft | 353 kts | 243° |
| 2026-05-05 20:28 | 51.71854 | 7.24413 | 15924 ft | 351 kts | 243° |
| 2026-05-05 20:28 | 51.70788 | 7.20888 | 15454 ft | 349 kts | 243° |
| 2026-05-05 20:29 | 51.69672 | 7.17413 | 14964 ft | 347 kts | 237° |
| 2026-05-05 20:29 | 51.68320 | 7.14214 | 14596 ft | 342 kts | 233° |
| 2026-05-05 20:29 | 51.66961 | 7.11109 | 14313 ft | 340 kts | 233° |
| 2026-05-05 20:29 | 51.65582 | 7.07972 | 14016 ft | 345 kts | 233° |
| 2026-05-05 20:30 | 51.64189 | 7.04819 | 13721 ft | 345 kts | 233° |
| 2026-05-05 20:30 | 51.62794 | 7.01676 | 13324 ft | 344 kts | 233° |
| 2026-05-05 20:30 | 51.61400 | 6.98551 | 12925 ft | 343 kts | 233° |
| 2026-05-05 20:30 | 51.60011 | 6.95448 | 12533 ft | 341 kts | 233° |
| 2026-05-05 20:31 | 51.58664 | 6.92454 | 12157 ft | 339 kts | 233° |
| 2026-05-05 20:31 | 51.57246 | 6.89315 | 11768 ft | 337 kts | 233° |
| 2026-05-05 20:31 | 51.55871 | 6.86281 | 11390 ft | 335 kts | 233° |
| 2026-05-05 20:31 | 51.54497 | 6.83261 | 11017 ft | 333 kts | 233° |
| 2026-05-05 20:32 | 51.53129 | 6.80267 | 10645 ft | 332 kts | 233° |
| 2026-05-05 20:32 | 51.51764 | 6.77287 | 10279 ft | 330 kts | 233° |
| 2026-05-05 20:32 | 51.50403 | 6.74328 | 9920 ft | 329 kts | 233° |
| 2026-05-05 20:32 | 51.49047 | 6.71393 | 9541 ft | 328 kts | 233° |
| 2026-05-05 20:33 | 51.47706 | 6.68500 | 9146 ft | 326 kts | 233° |
| 2026-05-05 20:33 | 51.46358 | 6.65587 | 8754 ft | 324 kts | 233° |
| 2026-05-05 20:33 | 51.45017 | 6.62682 | 8365 ft | 323 kts | 233° |
| 2026-05-05 20:33 | 51.43686 | 6.59794 | 7979 ft | 321 kts | 233° |
| 2026-05-05 20:34 | 51.42360 | 6.56911 | 7600 ft | 320 kts | 233° |
| 2026-05-05 20:34 | 51.41045 | 6.54045 | 7228 ft | 319 kts | 233° |
| 2026-05-05 20:34 | 51.39735 | 6.51186 | 6849 ft | 318 kts | 233° |
| 2026-05-05 20:34 | 51.38432 | 6.48340 | 6492 ft | 316 kts | 233° |
| 2026-05-05 20:35 | 51.37143 | 6.45518 | 6119 ft | 311 kts | 233° |
| 2026-05-05 20:35 | 51.35882 | 6.42759 | 5734 ft | 304 kts | 233° |
| 2026-05-05 20:35 | 51.34631 | 6.40076 | 5353 ft | 298 kts | 230° |
| 2026-05-05 20:35 | 51.33075 | 6.38040 | 5232 ft | 281 kts | 207° |
| 2026-05-05 20:36 | 51.31287 | 6.37057 | 5166 ft | 268 kts | 187° |
| 2026-05-05 20:36 | 51.29431 | 6.37111 | 5103 ft | 268 kts | 166° |
| 2026-05-05 20:36 | 51.27710 | 6.38166 | 5037 ft | 262 kts | 147° |
| 2026-05-05 20:36 | 51.26359 | 6.39951 | 4980 ft | 245 kts | 134° |
| 2026-05-05 20:37 | 51.25176 | 6.41780 | 4924 ft | 230 kts | 135° |
| 2026-05-05 20:37 | 51.24427 | 6.42930 | 4889 ft | 221 kts | 135° |
| 2026-05-05 20:37 | 51.22956 | 6.45181 | 4716 ft | 218 kts | 135° |
| 2026-05-05 20:37 | 51.21866 | 6.46847 | 4474 ft | 217 kts | 135° |
| 2026-05-05 20:38 | 51.20783 | 6.48504 | 4225 ft | 215 kts | 135° |
| 2026-05-05 20:38 | 51.19747 | 6.50240 | 3799 ft | 220 kts | 124° |
| 2026-05-05 20:38 | 51.19105 | 6.52446 | 3468 ft | 218 kts | 102° |
| 2026-05-05 20:38 | 51.18996 | 6.54801 | 3259 ft | 210 kts | 83° |
| 2026-05-05 20:39 | 51.19376 | 6.57008 | 3042 ft | 205 kts | 64° |
| 2026-05-05 20:39 | 51.20155 | 6.58891 | 2786 ft | 202 kts | 52° |
| 2026-05-05 20:39 | 51.21006 | 6.60662 | 2518 ft | 198 kts | 53° |
| 2026-05-05 20:39 | 51.21812 | 6.62344 | 2287 ft | 185 kts | 52° |
| 2026-05-05 20:40 | 51.22568 | 6.63922 | 2013 ft | 170 kts | 52° |
| 2026-05-05 20:40 | 51.23257 | 6.65361 | 1792 ft | 157 kts | 51° |
| 2026-05-05 20:40 | 51.23884 | 6.66671 | 1592 ft | 139 kts | 51° |
| 2026-05-05 20:40 | 51.24447 | 6.67848 | 1404 ft | 129 kts | 50° |
| 2026-05-05 20:41 | 51.24979 | 6.68959 | 1231 ft | 125 kts | 50° |
| 2026-05-05 20:41 | 51.25509 | 6.70067 | 1036 ft | 126 kts | 50° |
| 2026-05-05 20:41 | 51.26039 | 6.71176 | 860 ft | 125 kts | 50° |
| 2026-05-05 20:41 | 51.26565 | 6.72275 | 697 ft | 125 kts | 48° |
| 2026-05-05 20:42 | 51.27095 | 6.73385 | 512 ft | 127 kts | 49° |
| 2026-05-05 20:42 | 51.27627 | 6.74502 | 346 ft | 126 kts | 49° |
| 2026-05-05 20:42 | 51.28159 | 6.75607 | 156 ft | 124 kts | 50° |
| 2026-05-05 20:42 | 51.28634 | 6.76607 | 125 ft | 94 kts | 52° |
| 2026-05-05 20:43 | 51.28925 | 6.77223 | 128 ft | 45 kts | 52° |
| 2026-05-05 20:43 | 51.29025 | 6.77506 | 128 ft | 24 kts | 91° |
| 2026-05-05 20:43 | 51.28962 | 6.77622 | 127 ft | 1 kts | 143° |
| 2026-05-05 20:44 | 51.28961 | 6.77622 | 127 ft | 0 kts | 142° |
| 2026-05-05 20:44 | 51.28945 | 6.77642 | 129 ft | 4 kts | 144° |
| 2026-05-05 20:44 | 51.28908 | 6.77643 | 129 ft | 7 kts | 201° |